Soest, Netherlands
Current Conditions -  °F | °C
As of 10:25 PM on Tuesday 21 Oct 2014 (Local Time) from EHAM Reporting Station
Thunderstorm Thunderstorm  
Wind Chill: 50°   Ceiling: Unl
Heat Index: 50°   Visibility: 6mi
Dew Point: 43°   Wind: 38mph
Humidity: 76%   Direction: 320°NW
Pressure: 29.68"   Gusts: 49mph
Location:  52.17°N, 5.29°E
Report Text: EHAM 212025Z 32033G43KT 290V350 9000 -TSRA FEW035CB FEW04910/06 Q1005 TEMPO 6000 SHRA
Loading
Personal Weather Stations






























Interactive Weather Map
Tropical Storm Tracking
New forecast layout! Learn more

10-Day Weather Forecast

Advertisements
Track Severe Weather on mobile